Time;durP1;ratioP1;P1;durP2;ratioP2;P2;SDS_P1;SDS_P2;PMS_P1;PMS_P2;Temp;Humidity;BMP_temperature;BMP_pressure;BME280_temperature;BME280_humidity;BME280_pressure;Samples;Min_cycle;Max_cycle;Signal;HPM_P1;HPM_P2
2022/10/08 00:01:14;;;;;;;422.20;397.87;;;13.80;38.30;;;;;;4994706;28;20175;-69
2022/10/08 00:03:42;;;;;;;593.17;559.10;;;13.80;37.90;;;;;;4995090;28;20263;-68
2022/10/08 00:06:22;;;;;;;555.67;523.60;;;13.70;37.50;;;;;;4994508;28;20418;-68
2022/10/08 00:08:57;;;;;;;509.53;480.73;;;13.70;38.50;;;;;;4994384;28;20459;-68
2022/10/08 00:11:32;;;;;;;432.50;408.00;;;13.70;37.90;;;;;;4994404;28;20506;-69
2022/10/08 00:13:58;;;;;;;570.23;538.17;;;13.60;38.00;;;;;;4994567;28;20412;-69
2022/10/08 00:16:30;;;;;;;572.83;541.63;;;13.50;38.80;;;;;;4994326;28;20523;-69
2022/10/08 00:19:02;;;;;;;644.83;608.30;;;13.40;39.20;;;;;;4994374;28;20453;-69
2022/10/08 00:21:31;;;;;;;542.13;512.10;;;13.30;39.10;;;;;;4992705;28;20523;-69
2022/10/08 00:23:57;;;;;;;491.83;463.30;;;13.40;39.80;;;;;;4994327;28;20421;-69
2022/10/08 00:26:25;;;;;;;519.20;490.23;;;13.30;40.10;;;;;;4994236;28;20497;-69
2022/10/08 00:28:53;;;;;;;520.23;491.00;;;13.40;40.10;;;;;;4994093;28;20435;-69
2022/10/08 00:31:24;;;;;;;625.53;589.63;;;13.40;40.10;;;;;;4993924;28;20495;-69
2022/10/08 00:33:56;;;;;;;609.13;575.07;;;13.30;40.50;;;;;;4992760;28;20431;-69
2022/10/08 00:36:23;;;;;;;566.50;535.07;;;13.40;40.50;;;;;;4993952;28;20502;-69
2022/10/08 00:38:58;;;;;;;573.47;542.67;;;13.40;40.30;;;;;;4993836;28;20455;-69
2022/10/08 00:41:26;;;;;;;581.30;547.73;;;13.40;40.10;;;;;;4992539;28;21020;-69
2022/10/08 00:43:54;;;;;;;582.13;551.23;;;13.40;40.10;;;;;;4993247;28;20859;-69
2022/10/08 00:46:25;;;;;;;527.20;497.33;;;13.30;40.30;;;;;;4993832;28;20455;-69
2022/10/08 00:49:01;;;;;;;533.83;504.87;;;13.20;41.10;;;;;;4992489;28;20597;-69
2022/10/08 00:51:28;;;;;;;486.70;460.20;;;13.20;41.60;;;;;;5008693;28;20460;-69
2022/10/08 00:53:54;;;;;;;489.00;462.33;;;13.20;40.70;;;;;;5008882;28;20436;-68
2022/10/08 00:56:21;;;;;;;561.53;531.20;;;13.20;40.40;;;;;;4993702;28;20463;-69
2022/10/08 00:58:48;;;;;;;657.33;618.13;;;13.20;40.70;;;;;;4993501;28;20199;-68
2022/10/08 01:01:14;;;;;;;599.97;566.93;;;13.20;40.00;;;;;;4993264;28;20419;-68
2022/10/08 01:03:39;;;;;;;507.80;480.03;;;13.20;39.00;;;;;;4993540;28;20457;-69
2022/10/08 01:06:18;;;;;;;562.97;531.50;;;13.10;39.70;;;;;;4993596;28;20774;-69
2022/10/08 01:09:12;;;;;;;570.00;539.97;;;13.10;40.10;;;;;;4993503;28;20277;-67
2022/10/08 01:12:03;;;;;;;615.37;580.53;;;13.00;41.10;;;;;;4993335;28;20429;-69
2022/10/08 01:14:53;;;;;;;621.97;587.10;;;12.90;41.00;;;;;;4993326;28;20411;-69
2022/10/08 01:17:29;;;;;;;591.47;558.00;;;12.90;41.30;;;;;;4993168;28;20407;-69
2022/10/08 01:20:09;;;;;;;502.90;476.30;;;12.90;41.60;;;;;;4993232;28;20413;-68
2022/10/08 01:23:03;;;;;;;562.83;531.10;;;12.90;41.80;;;;;;4993009;28;20843;-69
2022/10/08 01:25:50;;;;;;;529.10;499.90;;;12.80;42.90;;;;;;4993471;28;20450;-68
2022/10/08 01:28:22;;;;;;;543.23;512.80;;;12.80;43.20;;;;;;4992990;28;20431;-68
2022/10/08 01:30:55;;;;;;;610.60;576.17;;;12.80;42.70;;;;;;4991827;28;20830;-66
2022/10/08 01:33:28;;;;;;;605.53;571.30;;;12.80;43.40;;;;;;4992975;28;20425;-68
2022/10/08 01:35:58;;;;;;;528.33;500.10;;;12.90;42.30;;;;;;4992963;28;20496;-68
2022/10/08 01:38:27;;;;;;;560.03;529.10;;;12.70;42.00;;;;;;4993325;28;20533;-68
2022/10/08 01:40:57;;;;;;;538.70;509.00;;;12.80;43.00;;;;;;4991388;28;20838;-68
2022/10/08 01:43:27;;;;;;;526.17;498.03;;;12.70;43.70;;;;;;4991603;28;20777;-68
2022/10/08 01:45:57;;;;;;;630.47;595.07;;;12.80;42.40;;;;;;4992978;28;20415;-66
2022/10/08 01:48:28;;;;;;;570.33;539.60;;;12.80;42.20;;;;;;4992690;28;20430;-67
2022/10/08 01:51:03;;;;;;;563.07;533.13;;;12.80;41.90;;;;;;4992473;28;20518;-66
2022/10/08 01:53:33;;;;;;;586.30;554.73;;;12.80;42.40;;;;;;4992829;28;20504;-66
2022/10/08 01:56:02;;;;;;;543.87;514.53;;;12.80;42.90;;;;;;4991549;28;20840;-67
2022/10/08 01:58:50;;;;;;;575.23;542.93;;;12.70;42.60;;;;;;4992613;28;20531;-67
2022/10/08 02:01:50;;;;;;;553.27;521.70;;;12.70;43.70;;;;;;4992342;28;20417;-67
2022/10/08 02:04:33;;;;;;;548.00;518.10;;;12.80;43.30;;;;;;4979476;28;20422;-67
2022/10/08 02:07:13;;;;;;;476.27;449.63;;;12.80;42.90;;;;;;4992649;28;20481;-67
2022/10/08 02:09:42;;;;;;;526.57;496.73;;;12.80;42.10;;;;;;4992475;28;20479;-67
2022/10/08 02:12:08;;;;;;;535.37;504.43;;;12.80;43.40;;;;;;4992228;28;20408;-66
2022/10/08 02:14:39;;;;;;;555.20;524.00;;;12.80;42.70;;;;;;4992449;28;20424;-66
2022/10/08 02:17:10;;;;;;;429.33;404.37;;;12.80;42.70;;;;;;4992707;28;20422;-67
2022/10/08 02:19:48;;;;;;;470.80;443.83;;;12.90;42.70;;;;;;4992715;28;20411;-67
2022/10/08 02:22:20;;;;;;;560.47;530.60;;;12.90;42.80;;;;;;4992392;28;20418;-67
2022/10/08 02:24:51;;;;;;;576.50;545.73;;;12.90;42.00;;;;;;4992597;28;20452;-66
2022/10/08 02:27:24;;;;;;;423.80;399.27;;;12.80;41.90;;;;;;4992495;28;20415;-66
2022/10/08 02:30:07;;;;;;;415.30;392.23;;;12.90;42.80;;;;;;4992457;28;20427;-67
2022/10/08 02:32:56;;;;;;;532.53;503.63;;;12.90;43.10;;;;;;4992115;28;20503;-67
2022/10/08 02:35:41;;;;;;;733.40;692.23;;;12.90;42.00;;;;;;4991793;28;21034;-67
2022/10/08 02:38:16;;;;;;;549.23;517.83;;;12.90;42.30;;;;;;4992115;28;20879;-67
2022/10/08 02:40:46;;;;;;;671.63;632.83;;;12.90;42.80;;;;;;4992207;28;20880;-66
2022/10/08 02:43:20;;;;;;;710.80;670.83;;;12.90;42.40;;;;;;4992244;28;20423;-67
2022/10/08 02:46:13;;;;;;;566.90;534.40;;;13.00;42.40;;;;;;4992309;28;20501;-67
2022/10/08 02:48:55;;;;;;;716.10;674.93;;;13.00;42.30;;;;;;4992464;28;20434;-67
2022/10/08 02:51:21;;;;;;;510.07;481.33;;;13.00;43.70;;;;;;4992163;28;20426;-67
2022/10/08 02:53:48;;;;;;;580.70;549.03;;;13.00;43.30;;;;;;4991772;28;20456;-66
2022/10/08 02:56:19;;;;;;;527.03;497.53;;;13.10;42.10;;;;;;4991941;28;20461;-67
2022/10/08 02:58:45;;;;;;;448.90;425.10;;;13.10;41.60;;;;;;4992096;28;20921;-67
2022/10/08 03:01:49;;;;;;;522.00;492.37;;;13.10;41.50;;;;;;4991924;28;20923;-67
2022/10/08 03:04:21;;;;;;;559.57;529.37;;;13.10;41.20;;;;;;4992029;28;20421;-66
2022/10/08 03:06:47;;;;;;;565.77;532.90;;;13.10;41.00;;;;;;4992967;28;20411;-67
2022/10/08 03:09:14;;;;;;;442.73;418.20;;;13.10;41.00;;;;;;4995569;28;20431;-67
2022/10/08 03:11:40;;;;;;;557.90;527.13;;;13.00;41.40;;;;;;4995401;28;20436;-67
2022/10/08 03:14:08;;;;;;;665.53;628.33;;;13.00;41.20;;;;;;4995485;28;20412;-67
2022/10/08 03:16:39;;;;;;;537.80;508.00;;;13.00;41.40;;;;;;4995377;28;20536;-67
2022/10/08 03:19:09;;;;;;;484.67;458.23;;;13.00;41.40;;;;;;4995509;28;20431;-66
2022/10/08 03:21:36;;;;;;;542.43;512.40;;;13.00;41.60;;;;;;4995185;28;20784;-66
2022/10/08 03:24:01;;;;;;;474.40;447.87;;;13.00;42.30;;;;;;4995303;28;20474;-66
2022/10/08 03:26:27;;;;;;;635.40;598.10;;;12.90;42.80;;;;;;4995236;28;20512;-67
2022/10/08 03:28:53;;;;;;;459.20;433.50;;;12.90;42.50;;;;;;4995091;28;20204;-66
2022/10/08 03:31:18;;;;;;;669.00;630.67;;;12.90;42.80;;;;;;4993645;28;20191;-66
2022/10/08 03:33:49;;;;;;;463.17;437.77;;;12.90;43.10;;;;;;4995178;28;20710;-66
2022/10/08 03:36:14;;;;;;;606.67;573.00;;;12.90;43.00;;;;;;4995111;28;20215;-66
2022/10/08 03:38:40;;;;;;;703.00;661.10;;;12.90;42.50;;;;;;4993549;28;20557;-66
2022/10/08 03:41:08;;;;;;;509.37;482.10;;;12.90;42.20;;;;;;4994733;28;20177;-66
2022/10/08 03:43:34;;;;;;;490.27;463.63;;;12.90;43.40;;;;;;4994930;28;20202;-67
2022/10/08 03:45:59;;;;;;;635.40;600.27;;;12.90;43.90;;;;;;4995005;28;20509;-66
2022/10/08 03:48:25;;;;;;;741.50;696.23;;;13.00;42.50;;;;;;4994817;28;21024;-67
2022/10/08 03:50:52;;;;;;;495.23;468.40;;;12.90;42.30;;;;;;4994680;28;20187;-66
2022/10/08 03:53:18;;;;;;;457.20;431.53;;;13.00;42.90;;;;;;4994857;28;20270;-67
2022/10/08 03:55:43;;;;;;;440.03;416.20;;;13.00;43.10;;;;;;4993464;28;20466;-66
2022/10/08 03:58:09;;;;;;;642.37;606.03;;;13.00;42.80;;;;;;4994571;28;20949;-66
2022/10/08 04:00:34;;;;;;;515.43;487.23;;;12.90;42.50;;;;;;4994849;28;20175;-67
2022/10/08 04:03:00;;;;;;;579.20;548.20;;;12.90;42.40;;;;;;4994452;28;20177;-67
2022/10/08 04:05:25;;;;;;;564.37;534.50;;;12.90;42.40;;;;;;4994587;28;20177;-67
2022/10/08 04:07:51;;;;;;;508.60;481.17;;;12.80;42.70;;;;;;4994440;28;20223;-67
2022/10/08 04:10:17;;;;;;;633.93;597.93;;;12.80;43.80;;;;;;4994410;28;20186;-67
2022/10/08 04:12:42;;;;;;;510.73;483.43;;;12.80;43.40;;;;;;4994692;28;20646;-67
2022/10/08 04:15:08;;;;;;;546.70;516.30;;;12.80;43.80;;;;;;4994504;28;20636;-67
2022/10/08 04:17:34;;;;;;;671.13;633.37;;;12.80;43.80;;;;;;4994087;28;20204;-67
2022/10/08 04:19:59;;;;;;;683.50;641.87;;;12.80;43.10;;;;;;4993808;28;20451;-67
2022/10/08 04:22:25;;;;;;;494.97;468.30;;;12.70;43.70;;;;;;4993886;28;20179;-67
2022/10/08 04:24:50;;;;;;;650.00;612.90;;;12.80;43.80;;;;;;4994176;28;20173;-67
2022/10/08 04:27:16;;;;;;;646.23;610.70;;;12.90;43.40;;;;;;4994103;28;20372;-66
2022/10/08 04:29:41;;;;;;;808.17;756.77;;;12.80;43.00;;;;;;4994326;28;20232;-67
2022/10/08 04:32:07;;;;;;;554.20;522.93;;;12.80;43.80;;;;;;4993850;28;20195;-67
2022/10/08 04:34:32;;;;;;;524.10;495.17;;;12.90;43.20;;;;;;4994225;28;20192;-66
2022/10/08 04:36:58;;;;;;;584.93;553.70;;;12.80;43.80;;;;;;4993998;28;20602;-67
2022/10/08 04:39:23;;;;;;;523.03;496.03;;;12.80;43.80;;;;;;4993686;28;20737;-67
2022/10/08 04:41:49;;;;;;;594.03;559.57;;;12.80;43.30;;;;;;4993515;28;20184;-67
2022/10/08 04:44:14;;;;;;;758.27;708.47;;;12.80;43.20;;;;;;4993901;28;20182;-67
2022/10/08 04:46:40;;;;;;;790.47;738.00;;;12.70;43.60;;;;;;4993776;28;20528;-67
2022/10/08 04:49:06;;;;;;;546.17;517.17;;;12.70;43.70;;;;;;4993627;28;20576;-66
2022/10/08 04:51:31;;;;;;;511.57;483.30;;;12.70;43.70;;;;;;4993302;28;20199;-67
2022/10/08 04:53:57;;;;;;;640.73;603.10;;;12.70;43.70;;;;;;4993577;28;20242;-67
2022/10/08 04:56:28;;;;;;;485.53;459.93;;;12.80;43.80;;;;;;4993422;28;20286;-67
2022/10/08 04:58:54;;;;;;;602.80;568.70;;;12.80;43.80;;;;;;4993420;28;20236;-67
2022/10/08 05:01:21;;;;;;;597.30;562.40;;;12.80;43.50;;;;;;4993167;28;20855;-67
2022/10/08 05:03:49;;;;;;;605.13;570.07;;;12.70;43.70;;;;;;4993416;28;20426;-67
2022/10/08 05:06:17;;;;;;;568.50;538.00;;;12.70;43.70;;;;;;4993340;28;20507;-67
2022/10/08 05:08:43;;;;;;;645.73;606.93;;;12.70;43.70;;;;;;4993160;28;20557;-67
2022/10/08 05:11:09;;;;;;;536.63;506.53;;;12.60;44.10;;;;;;4993063;28;20430;-67
2022/10/08 05:13:35;;;;;;;543.77;513.37;;;12.60;44.50;;;;;;4993230;28;20802;-67
2022/10/08 05:16:12;;;;;;;571.10;539.07;;;12.60;44.40;;;;;;4993168;28;20275;-67
2022/10/08 05:18:38;;;;;;;550.60;521.93;;;12.70;43.70;;;;;;4991851;28;20473;-67
2022/10/08 05:21:07;;;;;;;663.23;620.93;;;12.60;43.70;;;;;;4992804;28;20791;-66
2022/10/08 05:23:32;;;;;;;620.33;584.47;;;12.60;44.30;;;;;;4993000;28;20424;-67
2022/10/08 05:25:58;;;;;;;585.57;549.93;;;12.50;44.40;;;;;;4993093;28;20474;-67
2022/10/08 05:28:24;;;;;;;582.90;548.80;;;12.50;43.80;;;;;;4992938;28;20997;-67
2022/10/08 05:30:49;;;;;;;534.07;503.43;;;12.50;44.10;;;;;;4992581;28;20259;-66
2022/10/08 05:33:15;;;;;;;456.37;432.07;;;12.50;43.50;;;;;;4991659;28;20219;-67
2022/10/08 05:35:40;;;;;;;519.97;492.07;;;12.60;43.60;;;;;;4992719;28;20204;-66
2022/10/08 05:38:06;;;;;;;508.23;480.37;;;12.60;43.60;;;;;;4992673;28;20225;-67
2022/10/08 05:40:31;;;;;;;504.30;476.90;;;12.50;44.00;;;;;;4991656;28;20184;-67
2022/10/08 05:42:57;;;;;;;586.90;548.90;;;12.40;44.30;;;;;;4993004;28;20175;-67
2022/10/08 05:45:22;;;;;;;515.67;485.40;;;12.50;44.60;;;;;;4993115;28;20515;-67
2022/10/08 05:47:48;;;;;;;604.33;569.27;;;12.50;44.70;;;;;;4993121;28;20227;-68
2022/10/08 05:50:14;;;;;;;572.83;538.80;;;12.60;44.60;;;;;;4993199;28;20239;-69
2022/10/08 05:52:40;;;;;;;576.83;543.83;;;12.50;44.80;;;;;;4992449;28;20180;-68
2022/10/08 05:55:06;;;;;;;671.53;632.50;;;12.60;45.10;;;;;;4991263;28;20463;-67
2022/10/08 05:57:32;;;;;;;663.03;622.67;;;12.60;44.90;;;;;;4992621;28;20628;-67
2022/10/08 05:59:57;;;;;;;504.67;477.40;;;12.70;44.90;;;;;;4992621;28;20441;-66
2022/10/08 06:02:23;;;;;;;594.90;560.40;;;12.70;44.80;;;;;;4992959;28;20211;-69
2022/10/08 06:04:49;;;;;;;540.90;511.23;;;12.90;43.90;;;;;;4992379;28;20197;-67
2022/10/08 06:07:14;;;;;;;508.20;479.60;;;12.90;43.90;;;;;;4992137;28;20187;-67
2022/10/08 06:09:40;;;;;;;525.40;493.50;;;13.10;43.70;;;;;;4992565;28;20176;-67
2022/10/08 06:12:08;;;;;;;627.63;591.80;;;13.00;44.00;;;;;;4992139;28;20186;-67
2022/10/08 06:14:34;;;;;;;559.83;526.87;;;13.10;43.60;;;;;;4992495;28;20221;-67
2022/10/08 06:17:00;;;;;;;547.60;513.43;;;13.20;43.70;;;;;;4992436;28;20420;-67
2022/10/08 06:19:25;;;;;;;650.37;612.07;;;13.30;43.10;;;;;;4991206;28;20200;-67
2022/10/08 06:21:51;;;;;;;563.03;531.50;;;13.30;42.80;;;;;;4992176;28;20207;-67
2022/10/08 06:24:16;;;;;;;630.63;592.63;;;13.40;43.50;;;;;;4992296;28;20266;-67
2022/10/08 06:26:43;;;;;;;458.97;431.87;;;13.40;42.90;;;;;;4992244;28;20187;-67
2022/10/08 06:29:15;;;;;;;514.43;483.50;;;13.50;42.50;;;;;;4992324;28;20580;-67
2022/10/08 06:31:41;;;;;;;553.07;519.53;;;13.60;42.00;;;;;;4992207;28;20500;-67
2022/10/08 06:34:07;;;;;;;438.13;414.47;;;13.70;41.70;;;;;;4992361;28;20427;-67
2022/10/08 06:36:35;;;;;;;605.07;566.10;;;13.80;42.00;;;;;;4992203;28;20283;-67
2022/10/08 06:39:05;;;;;;;578.80;541.50;;;13.90;41.90;;;;;;4992351;28;20448;-68
2022/10/08 06:41:33;;;;;;;698.73;650.33;;;14.10;41.90;;;;;;4992870;28;20416;-67
2022/10/08 06:43:59;;;;;;;756.60;700.87;;;14.20;41.50;;;;;;4996650;28;20416;-68
2022/10/08 06:46:25;;;;;;;692.33;640.87;;;14.30;41.40;;;;;;4996616;28;20433;-67
2022/10/08 06:48:52;;;;;;;395.83;374.27;;;14.40;40.70;;;;;;4995630;28;20444;-67
2022/10/08 06:51:18;;;;;;;426.43;401.83;;;14.50;40.20;;;;;;4995665;28;20440;-67
2022/10/08 06:53:50;;;;;;;717.43;662.20;;;14.60;37.30;;;;;;4994634;28;20792;-67
2022/10/08 06:56:17;;;;;;;483.80;451.90;;;14.60;36.60;;;;;;4993877;28;20458;-67
2022/10/08 06:58:43;;;;;;;551.57;514.70;;;14.60;36.60;;;;;;4995209;28;20502;-66
2022/10/08 07:01:16;;;;;;;624.83;581.57;;;14.70;37.00;;;;;;4993174;28;20415;-67
2022/10/08 07:03:42;;;;;;;454.67;422.97;;;14.70;36.10;;;;;;4991595;28;20416;-67
2022/10/08 07:06:10;;;;;;;790.17;724.53;;;14.80;35.20;;;;;;4991531;28;20435;-67
2022/10/08 07:08:36;;;;;;;929.83;850.57;;;14.80;35.40;;;;;;4990234;28;20446;-67
2022/10/08 07:11:03;;;;;;;620.70;580.93;;;15.00;35.40;;;;;;4991645;28;20418;-67
2022/10/08 07:13:29;;;;;;;748.37;686.23;;;15.10;35.50;;;;;;4991431;28;21032;-67
2022/10/08 07:16:03;;;;;;;687.67;639.83;;;15.30;35.60;;;;;;4990827;28;20521;-68
2022/10/08 07:18:30;;;;;;;615.10;570.40;;;15.40;34.80;;;;;;4990662;28;20211;-68
2022/10/08 07:20:56;;;;;;;519.27;478.13;;;15.60;31.70;;;;;;4991790;28;20509;-67
2022/10/08 07:23:22;;;;;;;618.43;567.57;;;15.70;32.50;;;;;;4991092;28;20539;-67
2022/10/08 07:26:20;;;;;;;790.17;724.13;;;15.80;32.20;;;;;;4991291;28;20949;-67
2022/10/08 07:29:02;;;;;;;483.67;448.50;;;15.90;30.90;;;;;;4991570;28;20219;-67
2022/10/08 07:31:31;;;;;;;455.20;425.90;;;15.90;30.90;;;;;;4990723;28;20454;-67
2022/10/08 07:33:58;;;;;;;419.80;393.43;;;15.90;30.30;;;;;;4991770;28;20952;-67
2022/10/08 07:36:25;;;;;;;483.93;451.40;;;16.00;30.00;;;;;;4990619;28;20550;-67
2022/10/08 07:39:02;;;;;;;377.97;357.97;;;16.00;30.00;;;;;;5012961;23;21091;-72
2022/10/08 07:41:28;;;;;;;390.13;367.03;;;16.10;29.60;;;;;;4991259;28;20864;-71
2022/10/08 07:43:58;;;;;;;562.73;522.10;;;16.10;29.10;;;;;;4992204;28;20706;-72
2022/10/08 07:46:34;;;;;;;565.93;525.27;;;16.20;28.80;;;;;;4991681;28;20428;-69
2022/10/08 07:49:00;;;;;;;685.03;630.77;;;16.30;28.70;;;;;;4991366;28;20443;-68
2022/10/08 07:51:28;;;;;;;438.10;411.53;;;16.40;28.30;;;;;;4990949;28;20451;-69
2022/10/08 07:53:53;;;;;;;481.43;447.80;;;16.40;27.60;;;;;;4992092;28;20424;-68
2022/10/08 07:56:20;;;;;;;458.53;428.60;;;16.50;27.10;;;;;;4989458;28;20557;-70
2022/10/08 07:58:47;;;;;;;545.47;506.60;;;16.70;26.30;;;;;;4990186;28;20440;-70
2022/10/08 08:01:16;;;;;;;443.37;417.70;;;16.80;26.20;;;;;;4989294;28;20796;-68
2022/10/08 08:03:42;;;;;;;406.83;383.17;;;17.00;25.70;;;;;;4985051;28;20437;-68
2022/10/08 08:06:13;;;;;;;425.53;398.43;;;17.00;25.40;;;;;;4988390;28;20424;-68
2022/10/08 08:08:41;;;;;;;566.90;524.20;;;17.00;24.90;;;;;;4988907;28;20458;-70
2022/10/08 08:11:09;;;;;;;493.80;462.57;;;17.00;25.00;;;;;;4990707;28;20420;-74
2022/10/08 08:13:36;;;;;;;471.13;439.93;;;16.80;25.70;;;;;;4986964;28;20519;-72
2022/10/08 08:16:07;;;;;;;402.80;377.30;;;16.80;25.90;;;;;;4976037;28;20810;-71
2022/10/08 08:18:35;;;;;;;498.57;466.73;;;16.80;26.50;;;;;;4970490;28;20861;-72
2022/10/08 08:21:04;;;;;;;568.83;527.90;;;16.80;25.90;;;;;;4977748;28;20416;-72
2022/10/08 08:23:38;;;;;;;403.57;378.13;;;16.80;26.10;;;;;;4991532;28;20482;-72
2022/10/08 08:26:12;;;;;;;640.93;594.23;;;16.90;26.10;;;;;;4990428;28;20455;-72
2022/10/08 08:28:38;;;;;;;567.50;531.07;;;17.00;26.50;;;;;;4988110;28;20964;-72
2022/10/08 08:31:36;;;;;;;616.77;574.00;;;16.90;26.10;;;;;;4989892;28;20423;-72
2022/10/08 08:34:08;;;;;;;527.00;494.40;;;16.90;25.80;;;;;;4966836;28;20636;-72
2022/10/08 08:36:37;;;;;;;473.07;445.23;;;17.00;25.40;;;;;;4971193;28;20913;-71
2022/10/08 08:39:04;;;;;;;522.10;491.90;;;16.90;24.90;;;;;;4970102;28;20544;-73
2022/10/08 08:41:52;;;;;;;562.43;526.97;;;17.10;25.50;;;;;;4969133;28;20507;-71
2022/10/08 08:44:24;;;;;;;619.27;578.57;;;17.40;24.20;;;;;;4970483;28;20413;-70
2022/10/08 08:46:58;;;;;;;505.90;472.80;;;17.40;22.60;;;;;;4973867;28;20424;-71
2022/10/08 08:49:29;;;;;;;495.03;465.03;;;17.10;22.30;;;;;;4974182;28;20424;-70
2022/10/08 08:51:57;;;;;;;533.10;502.20;;;17.00;23.20;;;;;;4974062;28;20894;-71
2022/10/08 08:54:23;;;;;;;580.97;539.53;;;16.90;23.10;;;;;;4974039;28;20412;-73
2022/10/08 08:56:50;;;;;;;530.53;495.93;;;16.70;22.90;;;;;;4974918;28;20860;-71
2022/10/08 08:59:43;;;;;;;559.27;525.63;;;16.40;22.80;;;;;;4979088;28;20460;-69
2022/10/08 09:02:21;;;;;;;466.57;439.20;;;16.20;23.20;;;;;;4974072;28;20471;-72
2022/10/08 09:04:55;;;;;;;571.37;530.03;;;16.30;24.00;;;;;;4973701;28;20472;-72
2022/10/08 09:07:25;;;;;;;531.07;498.73;;;16.30;23.00;;;;;;4974146;28;20420;-73
2022/10/08 09:09:53;;;;;;;477.27;448.27;;;16.60;22.60;;;;;;4973610;28;20475;-71
2022/10/08 09:12:23;;;;;;;476.07;447.43;;;16.90;21.50;;;;;;4973525;28;20440;-72
2022/10/08 09:14:53;;;;;;;503.63;471.13;;;17.20;21.40;;;;;;4988154;28;20437;-69
2022/10/08 09:17:26;;;;;;;528.40;498.50;;;17.50;20.60;;;;;;4992509;28;20420;-70
2022/10/08 09:19:52;;;;;;;555.30;516.90;;;17.70;20.20;;;;;;4973739;28;20456;-70
2022/10/08 09:22:30;;;;;;;531.50;497.03;;;17.80;20.50;;;;;;4972058;28;20431;-69
2022/10/08 09:25:02;;;;;;;495.17;464.43;;;18.00;19.60;;;;;;4973329;28;20783;-69
2022/10/08 09:27:51;;;;;;;557.07;520.07;;;18.10;19.60;;;;;;4989106;28;20449;-69
2022/10/08 09:30:38;;;;;;;678.50;623.93;;;18.30;18.50;;;;;;5012518;28;20419;-69
2022/10/08 09:33:15;;;;;;;575.53;535.40;;;18.20;18.60;;;;;;5012408;28;20419;-72
2022/10/08 09:35:43;;;;;;;583.37;548.77;;;18.50;17.30;;;;;;5012384;28;20824;-71
2022/10/08 09:38:28;;;;;;;608.20;561.63;;;18.70;16.10;;;;;;5012210;28;20482;-71
2022/10/08 09:41:04;;;;;;;397.70;373.77;;;18.80;15.70;;;;;;5012186;28;20414;-71
2022/10/08 09:43:32;;;;;;;470.47;436.03;;;18.80;15.70;;;;;;5012365;28;20492;-71
2022/10/08 09:45:58;;;;;;;496.57;462.23;;;19.00;14.80;;;;;;5012076;28;20420;-69
2022/10/08 09:48:27;;;;;;;461.63;431.33;;;18.90;12.80;;;;;;4992145;28;20812;-71
2022/10/08 09:51:04;;;;;;;458.77;427.80;;;18.90;14.00;;;;;;4991975;28;20419;-70
2022/10/08 09:53:51;;;;;;;464.97;427.90;;;18.80;13.00;;;;;;4984218;28;20836;-71
2022/10/08 09:56:26;;;;;;;459.77;428.07;;;19.00;12.70;;;;;;4983844;28;20470;-73
2022/10/08 09:58:54;;;;;;;474.23;440.03;;;19.20;13.30;;;;;;4988723;28;20848;-72
2022/10/08 10:01:20;;;;;;;444.63;414.20;;;19.30;12.10;;;;;;4988813;28;20947;-73
2022/10/08 10:03:54;;;;;;;473.93;442.10;;;19.30;12.50;;;;;;4987053;28;20432;-70
2022/10/08 10:06:35;;;;;;;552.20;509.80;;;19.00;13.20;;;;;;4988052;28;20427;-71
2022/10/08 10:09:09;;;;;;;551.00;506.63;;;18.80;13.90;;;;;;4986987;28;21110;-70
2022/10/08 10:12:16;;;;;;;500.67;459.40;;;18.80;14.40;;;;;;4988126;28;20427;-69
2022/10/08 10:14:45;;;;;;;448.83;414.50;;;18.80;13.40;;;;;;4984318;28;20791;-70
2022/10/08 10:17:19;;;;;;;454.83;421.17;;;18.80;13.60;;;;;;4974902;28;20454;-70
2022/10/08 10:19:58;;;;;;;440.47;405.93;;;18.70;14.00;;;;;;4977027;28;20443;-71
2022/10/08 10:22:46;;;;;;;451.27;416.73;;;18.70;14.00;;;;;;4975619;28;20669;-72
2022/10/08 10:25:37;;;;;;;562.27;517.80;;;18.80;13.10;;;;;;4985027;28;20486;-72
2022/10/08 10:28:13;;;;;;;472.77;438.27;;;19.00;13.30;;;;;;4996220;28;20773;-72
2022/10/08 10:31:22;;;;;;;505.23;462.60;;;19.00;13.50;;;;;;4996207;28;20438;-74
2022/10/08 10:33:58;;;;;;;495.33;461.50;;;19.30;13.20;;;;;;4988811;28;20709;-72
2022/10/08 10:36:30;;;;;;;563.47;522.73;;;19.40;11.70;;;;;;4996331;28;20466;-73
2022/10/08 10:39:39;;;;;;;525.40;487.80;;;19.80;12.50;;;;;;4995920;28;20447;-72
2022/10/08 10:42:26;;;;;;;572.93;525.23;;;20.10;10.50;;;;;;4967508;28;20833;-72
2022/10/08 10:45:23;;;;;;;529.63;486.93;;;19.90;9.30;;;;;;4996024;28;20406;-71
2022/10/08 10:47:52;;;;;;;485.27;448.17;;;19.60;10.20;;;;;;4996006;28;20442;-71
2022/10/08 10:50:42;;;;;;;497.33;457.10;;;19.70;11.80;;;;;;4995875;28;20474;-71
2022/10/08 10:53:27;;;;;;;430.50;400.20;;;19.50;11.40;;;;;;4995935;28;20418;-70
2022/10/08 10:56:01;;;;;;;471.53;434.83;;;19.70;11.30;;;;;;4995742;28;20510;-71
2022/10/08 10:58:35;;;;;;;468.87;433.53;;;19.60;11.80;;;;;;4995836;28;20434;-70
2022/10/08 11:01:22;;;;;;;480.13;448.90;;;19.70;11.00;;;;;;4995492;28;20750;-70
2022/10/08 11:03:53;;;;;;;533.07;489.63;;;19.60;10.60;;;;;;4995999;28;20976;-72
2022/10/08 11:06:28;;;;;;;512.03;470.70;;;19.90;11.10;;;;;;4995994;28;20936;-71
2022/10/08 11:09:12;;;;;;;583.00;532.93;;;20.20;9.70;;;;;;4995421;28;20443;-72
2022/10/08 11:11:44;;;;;;;540.43;495.67;;;20.30;9.20;;;;;;4995244;28;20955;-70
2022/10/08 11:14:44;;;;;;;409.10;380.60;;;20.50;8.50;;;;;;4995543;28;20430;-69
2022/10/08 11:17:37;;;;;;;545.70;501.40;;;20.30;8.90;;;;;;4995387;28;20427;-70
2022/10/08 11:20:09;;;;;;;471.43;437.27;;;20.00;9.60;;;;;;4994371;28;20658;-68
2022/10/08 11:22:39;;;;;;;460.83;425.77;;;20.20;9.50;;;;;;4994842;28;20435;-69
2022/10/08 11:25:27;;;;;;;407.23;378.63;;;20.30;8.00;;;;;;4995688;28;20430;-69
2022/10/08 11:27:59;;;;;;;670.83;608.13;;;19.70;9.90;;;;;;4994725;28;20482;-69
2022/10/08 11:30:39;;;;;;;562.77;518.27;;;19.80;9.80;;;;;;4995723;28;20412;-69
2022/10/08 11:33:10;;;;;;;503.23;461.80;;;19.60;10.10;;;;;;4995025;28;20485;-68
2022/10/08 11:35:48;;;;;;;494.70;452.97;;;19.40;11.70;;;;;;4994995;28;20765;-70
2022/10/08 11:38:28;;;;;;;495.37;458.57;;;19.20;12.60;;;;;;4994728;28;20890;-70
2022/10/08 11:41:22;;;;;;;380.77;351.60;;;19.30;13.00;;;;;;4995176;28;20414;-70
2022/10/08 11:44:02;;;;;;;414.47;385.23;;;19.10;12.70;;;;;;4995015;28;20412;-70
2022/10/08 11:46:30;;;;;;;471.17;436.67;;;18.80;13.40;;;;;;4995045;28;20419;-69
2022/10/08 11:49:22;;;;;;;436.87;404.57;;;18.50;13.10;;;;;;4994828;28;20523;-70
2022/10/08 11:51:52;;;;;;;473.17;443.70;;;18.30;13.50;;;;;;4965340;28;20432;-70
2022/10/08 11:54:33;;;;;;;414.53;388.27;;;18.10;14.30;;;;;;4993528;28;20498;-70
2022/10/08 11:57:18;;;;;;;456.20;427.83;;;18.10;15.30;;;;;;4995171;28;20542;-71
2022/10/08 12:00:01;;;;;;;440.90;410.07;;;18.20;14.00;;;;;;4994827;28;20522;-71
2022/10/08 12:02:37;;;;;;;534.20;489.53;;;18.20;13.10;;;;;;4993135;28;20424;-71
2022/10/08 12:05:35;;;;;;;432.10;399.13;;;18.00;12.90;;;;;;4994627;28;20503;-70
2022/10/08 12:08:02;;;;;;;503.87;472.43;;;17.80;12.70;;;;;;4994622;28;20439;-70
2022/10/08 12:10:38;;;;;;;498.37;456.60;;;17.80;12.70;;;;;;4994376;28;20932;-70
2022/10/08 12:13:10;;;;;;;498.47;457.00;;;18.00;12.80;;;;;;4993902;28;20438;-71
2022/10/08 12:15:37;;;;;;;443.73;411.63;;;18.00;12.30;;;;;;4994302;28;20960;-69
2022/10/08 12:18:09;;;;;;;481.30;439.17;;;18.20;12.20;;;;;;4994108;28;20815;-70
2022/10/08 12:20:37;;;;;;;473.13;435.17;;;18.50;11.40;;;;;;4993792;28;20506;-69
2022/10/08 12:23:33;;;;;;;489.27;455.57;;;19.00;11.30;;;;;;4992944;28;20424;-73
2022/10/08 12:25:58;;;;;;;442.97;412.57;;;19.00;8.70;;;;;;4994577;28;20416;-72
2022/10/08 12:28:27;;;;;;;372.60;347.17;;;19.00;7.50;;;;;;4994006;28;20439;-75
2022/10/08 12:31:13;;;;;;;574.13;524.63;;;19.00;8.40;;;;;;4992197;28;20191;-73
2022/10/08 12:33:39;;;;;;;472.63;437.80;;;18.80;7.70;;;;;;4994067;28;20427;-72